KSLB/SLB METAR and TAF weather

Enter ICAO airport designator
Station Type Date Time Source
KSLB METAR 2019/02/20 18:15 UTC NOAA

KSLB 201815Z AUTO 24014G19KT 4SM -SN SCT012 SCT019 M04/M04 A2959 RMK AO2


Station Type Date Time Source
KSLB Decoded METAR 2019/02/20 18:15 UTC NOAA

Storm Lake, IA, United States (KSLB) 42-36N 095-14W
Feb 20, 2019 - 01:15 PM EST / 2019.02.20 1815 UTC
Wind: from the WSW (240 degrees) at 16 MPH (14 KT) gusting to 22 MPH (19 KT):0
Visibility: 4 mile(s):0
Sky conditions: partly cloudy
Weather: light snow
Temperature: 24 F (-4 C)
Windchill: 10 F (-12 C):1
Dew Point: 24 F (-4 C)
Relative Humidity: 100%
Pressure (altimeter): 29.59 in. Hg (1002 hPa)
ob: KSLB 201815Z AUTO 24014G19KT 4SM -SN SCT012 SCT019 M04/M04 A2959 RMK AO2
cycle: 18

Station Type Date Time Source
KSLB TAF UTC NOAA

Error!


Example: see airport list